Time;durP1;ratioP1;P1;durP2;ratioP2;P2;SDS_P1;SDS_P2;PMS_P1;PMS_P2;Temp;Humidity;BMP_temperature;BMP_pressure;BME280_temperature;BME280_humidity;BME280_pressure;Samples;Min_cycle;Max_cycle;Signal;HPM_P1;HPM_P2
2023/01/09 00:01:50;;;;;;;0.37;0.33;;;5.50;99.90;;;;;;4148254;28;20719;-63
2023/01/09 00:03:51;;;;;;;0.37;0.37;;;5.60;99.90;;;;;;4148147;28;20641;-63
2023/01/09 00:05:52;;;;;;;1.00;0.47;;;5.50;99.90;;;;;;4148103;28;20435;-64
2023/01/09 00:07:52;;;;;;;0.30;0.30;;;5.50;99.90;;;;;;4147489;28;20208;-64
2023/01/09 00:09:53;;;;;;;0.30;0.30;;;5.50;99.90;;;;;;4146891;28;20185;-63
2023/01/09 00:11:54;;;;;;;0.30;0.30;;;5.40;99.90;;;;;;4147977;28;20204;-63
2023/01/09 00:13:54;;;;;;;0.30;0.30;;;5.20;99.90;;;;;;4146817;28;20194;-63
2023/01/09 00:15:55;;;;;;;0.30;0.30;;;5.20;99.90;;;;;;4147896;28;20265;-63
2023/01/09 00:17:56;;;;;;;0.30;0.30;;;5.30;99.90;;;;;;4147325;28;20182;-63
2023/01/09 00:19:57;;;;;;;0.30;0.30;;;5.30;99.90;;;;;;4147969;28;20217;-63
2023/01/09 00:21:58;;;;;;;0.40;0.40;;;5.20;99.90;;;;;;4147956;28;20208;-63
2023/01/09 00:23:58;;;;;;;0.80;0.37;;;5.20;99.90;;;;;;4148068;28;20425;-63
2023/01/09 00:26:13;;;;;;;0.40;0.40;;;5.20;99.90;;;;;;4147805;28;20312;-63
2023/01/09 00:28:13;;;;;;;0.40;0.40;;;5.30;99.90;;;;;;4145998;28;20204;-63
2023/01/09 00:30:14;;;;;;;0.30;0.30;;;5.50;99.90;;;;;;4147833;28;20425;-63
2023/01/09 00:32:15;;;;;;;0.30;0.30;;;5.40;99.90;;;;;;4147860;28;20673;-63
2023/01/09 00:34:16;;;;;;;1.37;0.33;;;5.50;99.90;;;;;;4147619;28;20210;-64
2023/01/09 00:36:16;;;;;;;0.50;0.50;;;5.60;99.90;;;;;;4147609;28;20287;-63
2023/01/09 00:38:17;;;;;;;0.30;0.30;;;5.70;99.90;;;;;;4147163;28;20291;-63
2023/01/09 00:40:18;;;;;;;0.30;0.30;;;5.60;99.90;;;;;;4147485;28;20193;-63
2023/01/09 00:42:23;;;;;;;0.40;0.40;;;5.60;99.90;;;;;;4146425;28;20186;-63
2023/01/09 00:44:38;;;;;;;0.30;0.30;;;5.70;99.90;;;;;;4146594;28;20421;-64
2023/01/09 00:46:47;;;;;;;0.40;0.40;;;5.70;99.90;;;;;;4145951;28;20898;-63
2023/01/09 00:48:48;;;;;;;0.50;0.40;;;5.80;99.90;;;;;;4147724;28;20417;-63
2023/01/09 00:50:50;;;;;;;0.40;0.40;;;5.80;99.90;;;;;;4146324;28;20937;-63
2023/01/09 00:52:54;;;;;;;0.40;0.40;;;5.70;99.90;;;;;;4146968;28;20431;-63
2023/01/09 00:54:57;;;;;;;1.07;0.50;;;5.80;99.90;;;;;;4146526;28;20503;-63
2023/01/09 00:56:58;;;;;;;0.50;0.50;;;5.80;99.90;;;;;;4145637;28;20276;-65
2023/01/09 00:58:59;;;;;;;0.50;0.50;;;5.90;99.90;;;;;;4147556;28;20192;-64
2023/01/09 01:01:00;;;;;;;1.50;0.57;;;5.90;99.90;;;;;;4146087;28;20437;-65
2023/01/09 01:03:01;;;;;;;0.60;0.60;;;5.90;99.90;;;;;;4147268;28;20551;-63
2023/01/09 01:07:39;;;;;;;0.50;0.50;;;5.90;99.90;;;;;;4146709;28;20193;-65
2023/01/09 01:09:39;;;;;;;0.40;0.40;;;5.90;99.90;;;;;;4147044;28;20417;-64
2023/01/09 01:11:40;;;;;;;0.50;0.50;;;5.90;99.90;;;;;;4145796;28;20736;-64
2023/01/09 01:13:41;;;;;;;0.40;0.40;;;5.90;99.90;;;;;;4147212;28;20273;-64
2023/01/09 01:15:44;;;;;;;0.43;0.43;;;6.00;99.90;;;;;;4149257;28;20261;-64
2023/01/09 01:17:46;;;;;;;0.50;0.50;;;6.00;99.90;;;;;;4162735;28;20467;-65
2023/01/09 01:19:46;;;;;;;0.40;0.40;;;6.10;99.90;;;;;;4162010;28;20428;-65
2023/01/09 01:21:47;;;;;;;0.40;0.40;;;6.10;99.90;;;;;;4163542;28;20480;-64
2023/01/09 01:23:48;;;;;;;0.40;0.40;;;6.00;99.90;;;;;;4163472;28;20185;-65
2023/01/09 01:25:48;;;;;;;0.40;0.40;;;6.00;99.90;;;;;;4161855;28;20680;-65
2023/01/09 01:27:49;;;;;;;0.30;0.30;;;5.90;99.90;;;;;;4161306;28;20601;-65
2023/01/09 01:29:51;;;;;;;0.30;0.30;;;5.90;99.90;;;;;;4163315;28;20272;-64
2023/01/09 01:31:52;;;;;;;0.50;0.50;;;5.90;99.90;;;;;;4164661;28;20189;-64
2023/01/09 01:33:52;;;;;;;1.07;0.50;;;5.80;99.90;;;;;;4164057;28;20485;-65
2023/01/09 01:36:06;;;;;;;0.57;0.40;;;5.90;99.90;;;;;;4163087;28;20212;-65
2023/01/09 01:38:06;;;;;;;0.40;0.40;;;5.80;99.90;;;;;;4162628;28;20777;-64
2023/01/09 01:40:09;;;;;;;0.50;0.50;;;5.80;99.90;;;;;;4161447;28;20430;-65
2023/01/09 01:42:12;;;;;;;0.37;0.37;;;5.70;99.90;;;;;;4146663;28;20181;-65
2023/01/09 01:45:07;;;;;;;0.40;0.40;;;5.70;99.90;;;;;;4146830;28;20507;-65
2023/01/09 01:47:08;;;;;;;0.40;0.40;;;5.70;99.90;;;;;;4146580;28;21295;-65
2023/01/09 01:49:14;;;;;;;0.40;0.40;;;5.80;99.90;;;;;;4145389;28;20476;-65
2023/01/09 01:51:17;;;;;;;1.33;0.60;;;5.80;99.90;;;;;;4146698;28;20206;-65
2023/01/09 01:53:40;;;;;;;0.57;0.40;;;5.70;99.90;;;;;;4146732;28;20181;-64
2023/01/09 01:55:57;;;;;;;0.33;0.33;;;5.60;99.90;;;;;;4146715;28;20413;-63
2023/01/09 01:58:03;;;;;;;0.43;0.40;;;5.60;99.90;;;;;;4145858;28;20428;-63
2023/01/09 02:00:06;;;;;;;0.60;0.60;;;5.50;99.90;;;;;;4145088;28;20255;-63
2023/01/09 02:02:08;;;;;;;0.40;0.40;;;5.30;99.90;;;;;;4146446;28;20535;-63
2023/01/09 02:04:09;;;;;;;0.30;0.30;;;5.20;99.90;;;;;;4145175;28;20256;-63
2023/01/09 02:06:11;;;;;;;0.90;0.90;;;5.20;99.90;;;;;;4145043;28;20918;-63
2023/01/09 02:08:12;;;;;;;0.40;0.40;;;5.20;99.90;;;;;;4144690;28;20425;-63
2023/01/09 02:10:14;;;;;;;0.47;0.47;;;5.10;99.90;;;;;;4146452;28;20428;-64
2023/01/09 02:12:22;;;;;;;0.43;0.43;;;5.10;99.90;;;;;;4146572;28;21034;-63
2023/01/09 02:14:28;;;;;;;0.50;0.50;;;5.20;99.90;;;;;;4146708;28;20435;-64
2023/01/09 02:17:33;;;;;;;1.07;0.50;;;5.20;99.90;;;;;;4144397;28;20446;-63
2023/01/09 02:19:54;;;;;;;0.40;0.40;;;5.20;99.90;;;;;;4111785;28;20433;-64
2023/01/09 02:22:25;;;;;;;0.53;0.53;;;5.20;99.90;;;;;;4136072;28;20455;-63
2023/01/09 02:25:35;;;;;;;0.50;0.50;;;5.30;99.90;;;;;;4146120;28;20474;-63
2023/01/09 02:28:38;;;;;;;0.63;0.63;;;5.30;99.90;;;;;;4136203;28;20940;-64
2023/01/09 02:30:49;;;;;;;0.70;0.60;;;5.40;99.90;;;;;;4145015;28;20433;-64
2023/01/09 02:34:10;;;;;;;0.87;0.70;;;5.40;99.90;;;;;;4146093;28;20417;-64
2023/01/09 02:36:39;;;;;;;1.00;0.67;;;5.30;99.90;;;;;;4127519;28;20539;-63
2023/01/09 02:39:09;;;;;;;0.77;0.77;;;5.20;99.90;;;;;;4137428;28;20519;-64
2023/01/09 02:41:21;;;;;;;0.93;0.80;;;5.30;99.90;;;;;;4144689;28;20444;-63
2023/01/09 02:43:22;;;;;;;0.67;0.57;;;5.40;99.90;;;;;;4146032;28;20423;-63
2023/01/09 02:45:23;;;;;;;0.50;0.50;;;5.40;99.90;;;;;;4144672;28;20437;-63
2023/01/09 02:47:23;;;;;;;1.70;1.30;;;5.40;99.90;;;;;;4145280;28;20942;-64
2023/01/09 02:49:24;;;;;;;1.37;1.33;;;5.40;99.90;;;;;;4145863;28;20997;-63
2023/01/09 02:51:39;;;;;;;0.50;0.50;;;5.40;99.90;;;;;;4144677;28;20205;-64
2023/01/09 02:54:06;;;;;;;0.40;0.40;;;5.30;99.90;;;;;;4144823;28;20177;-64
2023/01/09 02:56:41;;;;;;;0.53;0.53;;;5.40;99.90;;;;;;4144427;28;20479;-63
2023/01/09 02:58:59;;;;;;;1.57;0.60;;;5.40;99.90;;;;;;4145811;28;20421;-64
2023/01/09 03:01:31;;;;;;;0.53;0.50;;;5.30;99.90;;;;;;4144555;28;20453;-64
2023/01/09 03:04:11;;;;;;;0.53;0.50;;;5.30;99.90;;;;;;4144299;28;20495;-63
2023/01/09 03:06:23;;;;;;;0.40;0.40;;;5.30;99.90;;;;;;4144377;28;20412;-63
2023/01/09 03:08:37;;;;;;;1.43;0.50;;;5.20;99.90;;;;;;4144452;28;20421;-64
2023/01/09 03:11:07;;;;;;;0.90;0.50;;;5.20;99.90;;;;;;4144228;28;20859;-63
2023/01/09 03:13:12;;;;;;;0.40;0.40;;;5.20;99.90;;;;;;4159593;28;20439;-64
2023/01/09 03:15:15;;;;;;;0.50;0.50;;;5.20;99.90;;;;;;4144443;28;20468;-63
2023/01/09 03:17:31;;;;;;;0.50;0.50;;;5.20;99.90;;;;;;4163480;28;20484;-63
2023/01/09 03:19:33;;;;;;;0.63;0.50;;;5.20;99.90;;;;;;4163877;28;20470;-63
2023/01/09 03:21:34;;;;;;;0.40;0.40;;;5.20;99.90;;;;;;4163726;28;20449;-64
2023/01/09 03:23:53;;;;;;;2.00;0.80;;;5.20;99.90;;;;;;4163920;28;20510;-64
2023/01/09 03:25:53;;;;;;;0.87;0.40;;;5.20;99.90;;;;;;4164951;28;20510;-63
2023/01/09 03:28:04;;;;;;;0.40;0.40;;;5.20;99.90;;;;;;4164614;28;21098;-64
2023/01/09 03:30:06;;;;;;;0.43;0.43;;;5.20;99.90;;;;;;4165301;28;20260;-64
2023/01/09 03:32:07;;;;;;;0.80;0.80;;;5.20;99.90;;;;;;4166927;28;20446;-63
2023/01/09 03:34:07;;;;;;;0.40;0.40;;;5.10;99.90;;;;;;4166333;28;20517;-63
2023/01/09 03:36:10;;;;;;;1.00;0.90;;;5.10;99.90;;;;;;4165031;28;20181;-63
2023/01/09 03:38:11;;;;;;;0.40;0.40;;;5.10;99.90;;;;;;4163225;28;20185;-63
2023/01/09 03:40:12;;;;;;;0.40;0.40;;;5.00;99.90;;;;;;4164639;28;20446;-64
2023/01/09 03:42:12;;;;;;;1.30;0.70;;;5.10;99.90;;;;;;4164902;28;20270;-63
2023/01/09 03:44:13;;;;;;;1.97;0.57;;;5.00;99.90;;;;;;4152376;28;20204;-64
2023/01/09 03:46:17;;;;;;;0.37;0.37;;;4.90;99.90;;;;;;4148586;28;20212;-63
2023/01/09 03:48:17;;;;;;;0.40;0.40;;;4.70;99.90;;;;;;4148020;28;20271;-63
2023/01/09 03:50:18;;;;;;;0.30;0.30;;;4.60;99.90;;;;;;4148352;28;20899;-63
2023/01/09 03:52:19;;;;;;;0.50;0.37;;;4.50;99.90;;;;;;4148698;28;20182;-63
2023/01/09 03:54:19;;;;;;;9.63;0.93;;;4.50;99.90;;;;;;4149645;28;20197;-63
2023/01/09 03:56:20;;;;;;;0.70;0.70;;;4.50;99.90;;;;;;4164391;28;20220;-63
2023/01/09 03:58:21;;;;;;;0.37;0.37;;;4.40;99.90;;;;;;4164756;28;20177;-64
2023/01/09 04:00:22;;;;;;;0.57;0.57;;;4.40;99.90;;;;;;4164872;28;20205;-63
2023/01/09 04:02:23;;;;;;;0.50;0.50;;;4.30;99.90;;;;;;4164777;28;20786;-63
2023/01/09 04:04:23;;;;;;;0.60;0.60;;;4.30;99.90;;;;;;4164688;28;20683;-62
2023/01/09 04:06:24;;;;;;;0.37;0.37;;;4.20;99.90;;;;;;4164215;28;20239;-63
2023/01/09 04:08:25;;;;;;;0.97;0.40;;;4.20;99.90;;;;;;4163029;28;20199;-63
2023/01/09 04:10:26;;;;;;;1.17;1.17;;;4.10;99.90;;;;;;4164298;28;20219;-63
2023/01/09 04:12:26;;;;;;;0.30;0.30;;;4.10;99.90;;;;;;4164558;28;20205;-63
2023/01/09 04:14:27;;;;;;;0.33;0.33;;;4.10;99.90;;;;;;4164934;28;20176;-63
2023/01/09 04:16:28;;;;;;;3.93;3.80;;;4.00;99.90;;;;;;4164201;28;20216;-64
2023/01/09 04:18:29;;;;;;;2.83;2.73;;;4.00;99.90;;;;;;4164540;28;20424;-64
2023/01/09 04:20:30;;;;;;;1.57;1.47;;;3.90;99.90;;;;;;4164688;28;20236;-63
2023/01/09 04:22:31;;;;;;;0.50;0.40;;;3.90;99.90;;;;;;4164464;28;20184;-63
2023/01/09 04:24:31;;;;;;;0.37;0.37;;;3.90;99.90;;;;;;4164245;28;20431;-64
2023/01/09 04:26:32;;;;;;;1.40;0.50;;;3.90;99.90;;;;;;4164051;28;20199;-64
2023/01/09 04:28:33;;;;;;;0.50;0.50;;;3.90;99.90;;;;;;4163041;28;20188;-64
2023/01/09 04:30:33;;;;;;;1.00;0.60;;;3.90;99.90;;;;;;4164570;28;20213;-64
2023/01/09 04:32:34;;;;;;;1.10;0.50;;;3.90;99.90;;;;;;4164515;28;20180;-63
2023/01/09 04:34:35;;;;;;;0.83;0.60;;;3.80;99.90;;;;;;4164357;28;20226;-64
2023/01/09 04:36:35;;;;;;;0.40;0.40;;;3.80;99.90;;;;;;4163683;28;20710;-63
2023/01/09 04:38:36;;;;;;;0.40;0.40;;;3.70;99.90;;;;;;4164827;28;20789;-63
2023/01/09 04:40:38;;;;;;;0.70;0.70;;;3.60;99.90;;;;;;4164355;28;20277;-63
2023/01/09 04:42:39;;;;;;;0.40;0.40;;;3.50;99.90;;;;;;4164314;28;20621;-64
2023/01/09 04:44:40;;;;;;;0.50;0.50;;;3.40;99.90;;;;;;4164108;28;20462;-64
2023/01/09 04:46:40;;;;;;;0.60;0.47;;;3.30;99.90;;;;;;4163385;28;20474;-63
2023/01/09 04:48:41;;;;;;;0.70;0.70;;;3.20;99.90;;;;;;4164031;28;20191;-63
2023/01/09 04:50:42;;;;;;;0.40;0.40;;;3.10;99.90;;;;;;4164305;28;20235;-63
2023/01/09 04:52:42;;;;;;;0.50;0.50;;;3.10;99.90;;;;;;4162666;28;20276;-64
2023/01/09 04:54:43;;;;;;;1.13;0.43;;;3.00;99.90;;;;;;4163893;28;20246;-64
2023/01/09 04:56:44;;;;;;;1.70;0.60;;;3.00;99.90;;;;;;4163211;28;20213;-63
2023/01/09 04:58:44;;;;;;;1.00;0.60;;;3.00;99.90;;;;;;4163477;28;20195;-64
2023/01/09 05:00:45;;;;;;;0.70;0.60;;;3.00;99.90;;;;;;4163449;28;20204;-64
2023/01/09 05:02:46;;;;;;;0.73;0.50;;;3.10;99.90;;;;;;4163768;28;20199;-64
2023/01/09 05:04:46;;;;;;;0.43;0.43;;;3.20;99.90;;;;;;4163612;28;20188;-63
2023/01/09 05:06:47;;;;;;;0.93;0.70;;;3.20;99.90;;;;;;4162950;28;20984;-64
2023/01/09 05:08:48;;;;;;;0.60;0.40;;;3.20;99.90;;;;;;4163598;28;20268;-64
2023/01/09 05:10:48;;;;;;;0.70;0.60;;;3.20;99.90;;;;;;4163446;28;20232;-64
2023/01/09 05:12:51;;;;;;;2.43;1.63;;;3.20;99.90;;;;;;4161942;28;20239;-64
2023/01/09 05:14:51;;;;;;;1.37;0.77;;;3.20;99.90;;;;;;4163253;28;20189;-64
2023/01/09 05:16:52;;;;;;;0.40;0.40;;;3.20;99.90;;;;;;4163159;28;20482;-64
2023/01/09 05:18:55;;;;;;;0.87;0.60;;;3.20;99.90;;;;;;4163449;28;20187;-64
2023/01/09 05:20:56;;;;;;;0.50;0.50;;;3.20;99.90;;;;;;4163194;28;20276;-64
2023/01/09 05:22:57;;;;;;;5.13;0.80;;;3.20;99.90;;;;;;4162924;28;20793;-64
2023/01/09 05:24:57;;;;;;;0.80;0.80;;;3.30;99.90;;;;;;4162723;28;20227;-64
2023/01/09 05:26:58;;;;;;;0.47;0.40;;;3.30;99.90;;;;;;4162377;28;20185;-63
2023/01/09 05:28:59;;;;;;;0.40;0.40;;;3.30;99.90;;;;;;4162839;28;20192;-64
2023/01/09 05:31:00;;;;;;;1.73;0.97;;;3.30;99.90;;;;;;4163340;28;20683;-64
2023/01/09 05:33:01;;;;;;;1.37;1.07;;;3.20;99.90;;;;;;4164598;28;20220;-64
2023/01/09 05:35:01;;;;;;;0.40;0.40;;;3.20;99.90;;;;;;4150165;28;20277;-64
2023/01/09 05:37:02;;;;;;;0.77;0.53;;;3.20;99.90;;;;;;4145803;28;20213;-64
2023/01/09 05:39:04;;;;;;;1.27;0.67;;;3.10;99.90;;;;;;4146093;28;20652;-64
2023/01/09 05:41:05;;;;;;;0.50;0.50;;;3.20;99.90;;;;;;4146450;28;20287;-64
2023/01/09 05:43:05;;;;;;;1.57;0.63;;;3.20;99.90;;;;;;4146310;28;20794;-64
2023/01/09 05:45:07;;;;;;;0.80;0.57;;;3.20;99.90;;;;;;4146417;28;20198;-64
2023/01/09 05:47:08;;;;;;;0.90;0.60;;;3.20;99.90;;;;;;4145630;28;20204;-64
2023/01/09 05:49:08;;;;;;;1.40;0.60;;;3.20;99.90;;;;;;4146227;28;20955;-64
2023/01/09 05:51:10;;;;;;;0.93;0.60;;;3.10;99.90;;;;;;4146207;28;20220;-64
2023/01/09 05:53:11;;;;;;;0.97;0.77;;;3.10;99.90;;;;;;4146248;28;20185;-64
2023/01/09 05:55:12;;;;;;;2.67;2.30;;;3.10;99.90;;;;;;4146283;28;20436;-64
2023/01/09 05:57:13;;;;;;;7.60;6.30;;;3.10;99.90;;;;;;4145575;28;20220;-64
2023/01/09 05:59:13;;;;;;;8.37;5.60;;;3.20;99.90;;;;;;4146227;28;20428;-65
2023/01/09 06:01:14;;;;;;;4.90;2.07;;;3.20;99.90;;;;;;4146117;28;20212;-65
2023/01/09 06:03:15;;;;;;;2.37;1.90;;;3.20;99.90;;;;;;4146099;28;20185;-64
2023/01/09 06:05:15;;;;;;;0.60;0.57;;;3.20;99.90;;;;;;4146070;28;20277;-63
2023/01/09 06:07:16;;;;;;;1.93;1.10;;;3.10;99.90;;;;;;4148889;28;20193;-64
2023/01/09 06:09:17;;;;;;;1.97;0.80;;;3.20;99.90;;;;;;4162446;28;20560;-64
2023/01/09 06:11:17;;;;;;;2.17;0.67;;;3.10;99.90;;;;;;4162685;28;20655;-64
2023/01/09 06:13:18;;;;;;;0.77;0.67;;;3.10;99.90;;;;;;4162319;28;20547;-63
2023/01/09 06:15:19;;;;;;;1.10;0.73;;;3.10;99.90;;;;;;4162524;28;20238;-64
2023/01/09 06:17:20;;;;;;;2.00;1.10;;;3.10;99.90;;;;;;4161693;28;20209;-64
2023/01/09 06:19:21;;;;;;;1.47;0.77;;;3.00;99.90;;;;;;4162675;28;20937;-64
2023/01/09 06:21:22;;;;;;;0.70;0.60;;;3.00;99.90;;;;;;4162293;28;20530;-64
2023/01/09 06:23:23;;;;;;;2.57;1.70;;;2.90;99.90;;;;;;4162486;28;20237;-64
2023/01/09 06:25:24;;;;;;;1.13;0.90;;;2.90;99.90;;;;;;4162173;28;20238;-64
2023/01/09 06:27:25;;;;;;;1.93;1.00;;;2.90;99.90;;;;;;4160328;28;20185;-63
2023/01/09 06:29:26;;;;;;;2.23;1.00;;;2.90;99.90;;;;;;4160842;28;20458;-64
2023/01/09 06:31:26;;;;;;;1.50;0.97;;;2.90;99.90;;;;;;4161877;28;20205;-64
2023/01/09 06:33:27;;;;;;;4.00;1.47;;;2.90;99.90;;;;;;4161906;28;20196;-64
2023/01/09 06:35:28;;;;;;;2.13;0.60;;;2.90;99.90;;;;;;4161724;28;20566;-64
2023/01/09 06:37:29;;;;;;;1.57;0.70;;;2.90;99.90;;;;;;4161252;28;20212;-64
2023/01/09 06:39:30;;;;;;;7.77;1.00;;;2.80;99.90;;;;;;4161868;28;20188;-65
2023/01/09 06:41:30;;;;;;;1.77;1.00;;;2.80;99.90;;;;;;4161895;28;20459;-65
2023/01/09 06:43:31;;;;;;;1.77;0.87;;;2.80;99.90;;;;;;4160667;28;20211;-64
2023/01/09 06:45:32;;;;;;;3.13;1.00;;;2.70;99.90;;;;;;4161773;28;20690;-64
2023/01/09 06:47:33;;;;;;;3.00;2.70;;;2.70;99.90;;;;;;4161058;28;20191;-64
2023/01/09 06:49:33;;;;;;;2.17;1.40;;;2.70;99.90;;;;;;4161768;28;20522;-64
2023/01/09 06:51:34;;;;;;;2.57;1.30;;;2.70;99.90;;;;;;4160952;28;20212;-64
2023/01/09 06:53:35;;;;;;;2.03;1.00;;;2.80;99.90;;;;;;4161630;28;20643;-63
2023/01/09 06:55:35;;;;;;;4.80;1.70;;;2.80;99.90;;;;;;4161751;28;20670;-63
2023/01/09 06:57:36;;;;;;;1.30;0.80;;;2.90;99.90;;;;;;4159761;28;20297;-63
2023/01/09 06:59:37;;;;;;;1.57;0.90;;;2.90;99.90;;;;;;4161701;28;20217;-63
2023/01/09 07:01:41;;;;;;;3.27;0.83;;;2.90;99.90;;;;;;4161570;28;20205;-63
2023/01/09 07:03:42;;;;;;;2.20;0.90;;;3.00;99.90;;;;;;4161581;28;20195;-63
2023/01/09 07:05:43;;;;;;;1.70;0.90;;;3.00;99.90;;;;;;4159959;28;20938;-63
2023/01/09 07:07:44;;;;;;;3.97;1.00;;;2.90;99.90;;;;;;4160908;28;20442;-64
2023/01/09 07:09:44;;;;;;;1.40;0.83;;;2.90;99.90;;;;;;4161513;28;20280;-64
2023/01/09 07:11:45;;;;;;;2.50;1.23;;;3.00;99.90;;;;;;4161698;28;20207;-64
2023/01/09 07:13:45;;;;;;;14.13;1.10;;;2.90;99.90;;;;;;4161482;28;20196;-64
2023/01/09 07:15:46;;;;;;;3.03;0.80;;;3.00;99.90;;;;;;4161507;28;20189;-63
2023/01/09 07:17:50;;;;;;;3.30;1.30;;;2.90;99.90;;;;;;4160987;28;20293;-64
2023/01/09 07:19:50;;;;;;;4.20;1.23;;;2.90;99.90;;;;;;4161520;28;20263;-64
2023/01/09 07:21:51;;;;;;;1.63;0.70;;;3.00;99.90;;;;;;4161404;28;20512;-64
2023/01/09 07:23:52;;;;;;;1.60;0.70;;;3.10;99.90;;;;;;4161617;28;20189;-64
2023/01/09 07:25:53;;;;;;;4.73;1.00;;;3.10;99.90;;;;;;4161480;28;20177;-64
2023/01/09 07:27:53;;;;;;;4.57;1.10;;;3.10;99.90;;;;;;4161383;28;20258;-64
2023/01/09 07:29:54;;;;;;;5.53;2.00;;;3.10;99.90;;;;;;4151919;28;20189;-64
2023/01/09 07:31:55;;;;;;;5.13;1.33;;;3.10;99.90;;;;;;4145384;28;20218;-63
2023/01/09 07:33:56;;;;;;;3.30;1.97;;;3.20;99.90;;;;;;4144499;28;20722;-64
2023/01/09 07:35:56;;;;;;;5.43;1.83;;;3.30;99.90;;;;;;4145245;28;20452;-64
2023/01/09 07:37:57;;;;;;;5.20;1.47;;;3.30;99.90;;;;;;4144436;28;20263;-64
2023/01/09 07:39:57;;;;;;;2.93;1.30;;;3.30;99.90;;;;;;4145134;28;20195;-64
2023/01/09 07:41:58;;;;;;;1.50;0.67;;;3.40;99.90;;;;;;4145074;28;20263;-64
2023/01/09 07:43:59;;;;;;;5.17;1.00;;;3.40;99.90;;;;;;4145204;28;20189;-64
2023/01/09 07:46:00;;;;;;;3.53;1.00;;;3.40;99.90;;;;;;4145231;28;20189;-64
2023/01/09 07:48:00;;;;;;;1.40;0.87;;;3.50;99.90;;;;;;4144779;28;20185;-64
2023/01/09 07:50:01;;;;;;;6.63;1.10;;;3.50;99.90;;;;;;4145222;28;20181;-64
2023/01/09 07:52:02;;;;;;;3.07;0.80;;;3.40;99.90;;;;;;4145361;28;20251;-64
2023/01/09 07:54:03;;;;;;;1.93;0.87;;;3.40;99.90;;;;;;4145169;28;20225;-64
2023/01/09 07:56:04;;;;;;;3.70;1.37;;;3.50;99.90;;;;;;4143587;28;20440;-64
2023/01/09 07:58:05;;;;;;;1.37;0.80;;;3.50;99.90;;;;;;4144451;28;20189;-64
2023/01/09 08:00:09;;;;;;;2.43;0.77;;;3.50;99.90;;;;;;4144775;28;20435;-64
2023/01/09 08:02:11;;;;;;;5.20;1.03;;;3.60;99.90;;;;;;4145325;28;20568;-64
2023/01/09 08:04:12;;;;;;;4.57;2.17;;;3.70;99.90;;;;;;4147779;28;20421;-64
2023/01/09 08:06:12;;;;;;;2.30;1.20;;;3.80;99.90;;;;;;4147693;28;20435;-64
2023/01/09 08:08:13;;;;;;;3.97;1.93;;;3.80;99.90;;;;;;4147188;28;20189;-64
2023/01/09 08:10:18;;;;;;;4.93;1.00;;;3.60;99.90;;;;;;4147600;28;20607;-64
2023/01/09 08:12:19;;;;;;;4.57;0.83;;;3.60;99.90;;;;;;4147712;28;20447;-64
2023/01/09 08:14:19;;;;;;;2.03;1.00;;;3.60;99.90;;;;;;4147890;28;20499;-64
2023/01/09 08:16:20;;;;;;;3.40;1.00;;;3.60;99.90;;;;;;4147307;28;20821;-64
2023/01/09 08:18:20;;;;;;;7.73;1.53;;;3.70;99.90;;;;;;4146422;28;20668;-64
2023/01/09 08:20:21;;;;;;;6.87;0.97;;;3.70;99.90;;;;;;4147579;28;20358;-64
2023/01/09 08:22:22;;;;;;;2.47;1.00;;;3.70;99.90;;;;;;4147638;28;20177;-64
2023/01/09 08:24:22;;;;;;;3.60;1.07;;;3.70;99.90;;;;;;4147754;28;20170;-64
2023/01/09 08:26:23;;;;;;;4.33;0.87;;;3.80;99.90;;;;;;4147107;28;20866;-64
2023/01/09 08:28:24;;;;;;;2.93;1.10;;;3.90;99.90;;;;;;4147163;28;20255;-65
2023/01/09 08:30:24;;;;;;;6.90;1.63;;;3.90;99.90;;;;;;4147426;28;20252;-64
2023/01/09 08:32:25;;;;;;;3.10;0.90;;;3.90;99.90;;;;;;4147165;28;20196;-65
2023/01/09 08:34:27;;;;;;;1.27;0.80;;;3.90;99.90;;;;;;4146197;28;20217;-63
2023/01/09 08:36:27;;;;;;;5.20;1.23;;;3.90;99.90;;;;;;4145438;28;20212;-64
2023/01/09 08:38:28;;;;;;;2.87;1.00;;;3.90;99.90;;;;;;4147115;28;20912;-64
2023/01/09 08:40:29;;;;;;;3.30;1.13;;;4.00;99.90;;;;;;4145808;28;20201;-64
2023/01/09 08:47:08;;;;;;;2.80;1.00;;;4.10;99.90;;;;;;4146579;28;20415;-64
2023/01/09 08:49:09;;;;;;;4.77;1.23;;;4.10;99.90;;;;;;4146958;28;20432;-64
2023/01/09 08:51:10;;;;;;;4.87;1.30;;;4.10;99.90;;;;;;4147495;28;20218;-64
2023/01/09 08:53:11;;;;;;;3.60;1.10;;;4.20;99.90;;;;;;4147158;28;20185;-64
2023/01/09 08:55:11;;;;;;;2.43;1.20;;;4.20;99.90;;;;;;4147015;28;20890;-64
2023/01/09 08:57:12;;;;;;;3.43;1.70;;;4.00;99.90;;;;;;4146335;28;20460;-64
2023/01/09 08:59:14;;;;;;;5.50;1.70;;;4.00;99.90;;;;;;4147104;28;20182;-64
2023/01/09 09:01:15;;;;;;;6.60;1.33;;;4.10;99.90;;;;;;4145834;28;20202;-64
2023/01/09 09:03:16;;;;;;;3.37;1.30;;;4.30;99.90;;;;;;4147171;28;20433;-64
2023/01/09 09:05:17;;;;;;;7.07;2.07;;;4.40;99.90;;;;;;4145773;28;20186;-65
2023/01/09 09:07:25;;;;;;;3.37;0.90;;;4.50;99.90;;;;;;4146328;28;20456;-64
2023/01/09 09:09:26;;;;;;;4.20;1.20;;;4.50;99.00;;;;;;4145540;28;20331;-64
2023/01/09 09:11:26;;;;;;;4.67;0.90;;;4.50;99.60;;;;;;4146835;28;20575;-64
2023/01/09 09:13:27;;;;;;;4.77;1.20;;;4.40;99.90;;;;;;4145060;28;20570;-64
2023/01/09 09:15:28;;;;;;;3.03;1.30;;;4.40;99.70;;;;;;4155196;28;20552;-64
2023/01/09 09:17:28;;;;;;;4.80;1.20;;;4.50;99.90;;;;;;4162220;28;20213;-64
2023/01/09 09:19:29;;;;;;;3.47;1.30;;;4.50;99.90;;;;;;4162941;28;20722;-64
2023/01/09 09:21:30;;;;;;;6.87;1.43;;;4.60;99.90;;;;;;4157467;28;20241;-64
2023/01/09 09:23:30;;;;;;;5.37;1.20;;;4.60;99.90;;;;;;4146409;28;20212;-64
2023/01/09 09:25:31;;;;;;;3.67;1.10;;;4.70;99.70;;;;;;4146578;28;20514;-64
2023/01/09 09:27:32;;;;;;;1.67;0.80;;;4.70;99.10;;;;;;4145843;28;20186;-64
2023/01/09 09:29:33;;;;;;;3.80;1.20;;;4.70;98.50;;;;;;4145352;28;20618;-64
2023/01/09 09:31:37;;;;;;;5.10;1.00;;;4.80;99.30;;;;;;4146549;28;20444;-64
2023/01/09 09:33:38;;;;;;;1.90;0.87;;;5.00;98.40;;;;;;4146919;28;20210;-64
2023/01/09 09:35:38;;;;;;;3.70;1.20;;;4.90;97.90;;;;;;4146723;28;21162;-64
2023/01/09 09:37:40;;;;;;;2.63;0.97;;;4.80;98.50;;;;;;4145831;28;20681;-64
2023/01/09 09:39:41;;;;;;;7.13;1.40;;;4.80;98.30;;;;;;4146524;28;20610;-65
2023/01/09 09:45:27;;;;;;;4.83;1.17;;;5.00;97.40;;;;;;4146236;28;20189;-65
2023/01/09 09:47:52;;;;;;;4.87;1.13;;;5.00;97.70;;;;;;4145499;28;20567;-65
2023/01/09 09:50:24;;;;;;;3.23;1.17;;;5.10;98.10;;;;;;4146130;28;20454;-65
2023/01/09 09:52:50;;;;;;;3.07;1.13;;;4.90;96.60;;;;;;4146319;28;20444;-65
2023/01/09 09:54:52;;;;;;;2.67;0.70;;;4.80;97.80;;;;;;4144748;28;20935;-65
2023/01/09 09:56:56;;;;;;;3.30;0.93;;;4.70;98.20;;;;;;4145352;28;20491;-65
2023/01/09 09:59:17;;;;;;;2.93;1.00;;;4.70;98.20;;;;;;4146108;28;20435;-66
2023/01/09 10:01:41;;;;;;;7.10;1.23;;;4.90;98.10;;;;;;4144875;28;20498;-65
2023/01/09 10:03:48;;;;;;;3.97;1.43;;;5.10;97.90;;;;;;4144625;28;20433;-65
2023/01/09 10:05:51;;;;;;;3.13;1.40;;;5.20;96.00;;;;;;4144762;28;20502;-64
2023/01/09 10:07:55;;;;;;;4.50;0.83;;;5.00;97.00;;;;;;4144251;28;20437;-65
2023/01/09 10:10:03;;;;;;;2.60;1.57;;;5.00;97.40;;;;;;4144803;28;20431;-65
2023/01/09 10:12:27;;;;;;;2.47;1.00;;;5.00;97.70;;;;;;4144687;28;21001;-65
2023/01/09 10:14:29;;;;;;;2.57;0.80;;;4.80;97.60;;;;;;4151098;28;20431;-65
2023/01/09 10:16:46;;;;;;;2.93;1.00;;;4.80;98.30;;;;;;4163759;28;20467;-63
2023/01/09 10:18:51;;;;;;;6.67;2.50;;;4.80;97.90;;;;;;4166067;28;20410;-65
2023/01/09 10:20:57;;;;;;;1.87;1.07;;;4.80;98.00;;;;;;4171798;28;20484;-64
2023/01/09 10:23:14;;;;;;;2.10;1.10;;;4.70;98.70;;;;;;4167197;28;20424;-65
2023/01/09 10:25:23;;;;;;;4.20;1.30;;;4.70;98.80;;;;;;4169022;28;20475;-69
2023/01/09 10:27:50;;;;;;;3.73;1.00;;;4.70;99.50;;;;;;4159649;28;20914;-64
2023/01/09 10:30:51;;;;;;;3.17;1.10;;;4.80;99.10;;;;;;4175795;28;20469;-63
2023/01/09 10:33:08;;;;;;;1.93;0.97;;;4.90;99.30;;;;;;4148683;28;20537;-69
2023/01/09 10:35:30;;;;;;;4.03;1.70;;;4.90;99.10;;;;;;4168147;28;20439;-70
2023/01/09 10:37:42;;;;;;;2.60;1.37;;;4.70;99.10;;;;;;4170982;28;20491;-65
2023/01/09 10:39:58;;;;;;;5.77;1.50;;;4.70;99.60;;;;;;4163415;28;20420;-65
2023/01/09 10:42:17;;;;;;;3.27;1.30;;;4.80;99.70;;;;;;4175634;28;21027;-65
2023/01/09 10:44:46;;;;;;;1.00;0.70;;;4.80;98.30;;;;;;4146727;28;20417;-64
2023/01/09 10:46:55;;;;;;;4.53;0.90;;;4.70;99.20;;;;;;4170304;28;20428;-64
2023/01/09 10:49:03;;;;;;;4.37;0.90;;;4.70;99.10;;;;;;4166554;28;21137;-65
2023/01/09 10:51:28;;;;;;;4.70;2.00;;;4.70;99.10;;;;;;4169894;28;20832;-64
2023/01/09 10:53:39;;;;;;;6.37;1.20;;;4.80;98.70;;;;;;4171630;28;20415;-64
2023/01/09 10:55:46;;;;;;;2.67;1.60;;;4.90;98.60;;;;;;4176532;28;20426;-64
2023/01/09 10:57:53;;;;;;;3.43;1.20;;;5.00;98.50;;;;;;4163487;28;20457;-64
2023/01/09 10:59:55;;;;;;;5.07;2.07;;;5.00;98.80;;;;;;4174661;28;20454;-64
2023/01/09 11:01:55;;;;;;;5.27;0.97;;;5.10;98.30;;;;;;4162588;28;20973;-64
2023/01/09 11:04:01;;;;;;;2.03;1.90;;;5.20;98.20;;;;;;4176113;28;20429;-63
2023/01/09 11:06:02;;;;;;;4.93;1.40;;;5.20;97.20;;;;;;4161894;28;20165;-64
2023/01/09 11:08:15;;;;;;;2.40;1.87;;;5.20;98.00;;;;;;4174929;28;20464;-64
2023/01/09 11:10:16;;;;;;;4.37;1.23;;;5.20;98.10;;;;;;4155541;28;20419;-64
2023/01/09 11:12:31;;;;;;;7.77;1.20;;;5.30;98.20;;;;;;4161412;28;20431;-65